sensor_id;sensor_type;location;lat;lon;timestamp;P1;durP1;ratioP1;P2;durP2;ratioP2
21432;SDS011;18592;49.708;10.900;2023-03-04T00:01:05;10.20;;;7.20;;
21432;SDS011;18592;49.708;10.900;2023-03-04T00:03:06;10.63;;;7.93;;
21432;SDS011;18592;49.708;10.900;2023-03-04T00:05:12;11.93;;;7.50;;
21432;SDS011;18592;49.708;10.900;2023-03-04T00:07:13;11.13;;;7.33;;
21432;SDS011;18592;49.708;10.900;2023-03-04T00:09:17;9.97;;;6.83;;
21432;SDS011;18592;49.708;10.900;2023-03-04T00:11:19;10.03;;;7.17;;
21432;SDS011;18592;49.708;10.900;2023-03-04T00:13:20;9.97;;;6.63;;
21432;SDS011;18592;49.708;10.900;2023-03-04T00:15:22;11.27;;;6.97;;
21432;SDS011;18592;49.708;10.900;2023-03-04T00:17:24;11.20;;;7.40;;
21432;SDS011;18592;49.708;10.900;2023-03-04T00:19:25;10.67;;;6.73;;
21432;SDS011;18592;49.708;10.900;2023-03-04T00:21:27;10.00;;;7.07;;
21432;SDS011;18592;49.708;10.900;2023-03-04T00:23:29;10.17;;;6.60;;
21432;SDS011;18592;49.708;10.900;2023-03-04T00:25:31;8.97;;;6.13;;
21432;SDS011;18592;49.708;10.900;2023-03-04T00:27:33;10.27;;;6.50;;
21432;SDS011;18592;49.708;10.900;2023-03-04T00:29:36;10.03;;;6.80;;
21432;SDS011;18592;49.708;10.900;2023-03-04T00:31:37;9.10;;;6.20;;
21432;SDS011;18592;49.708;10.900;2023-03-04T00:33:39;9.50;;;6.63;;
21432;SDS011;18592;49.708;10.900;2023-03-04T00:35:43;10.03;;;6.57;;
21432;SDS011;18592;49.708;10.900;2023-03-04T00:37:45;11.30;;;6.87;;
21432;SDS011;18592;49.708;10.900;2023-03-04T00:39:47;9.60;;;6.27;;
21432;SDS011;18592;49.708;10.900;2023-03-04T00:41:48;10.30;;;6.67;;
21432;SDS011;18592;49.708;10.900;2023-03-04T00:43:50;10.00;;;6.70;;
21432;SDS011;18592;49.708;10.900;2023-03-04T00:45:52;8.83;;;5.97;;
21432;SDS011;18592;49.708;10.900;2023-03-04T00:47:53;11.13;;;6.80;;
21432;SDS011;18592;49.708;10.900;2023-03-04T00:49:55;10.00;;;6.50;;
21432;SDS011;18592;49.708;10.900;2023-03-04T00:51:57;9.73;;;6.20;;
21432;SDS011;18592;49.708;10.900;2023-03-04T00:53:58;13.03;;;7.40;;
21432;SDS011;18592;49.708;10.900;2023-03-04T00:56:01;11.80;;;7.80;;
21432;SDS011;18592;49.708;10.900;2023-03-04T00:58:04;10.23;;;7.00;;
21432;SDS011;18592;49.708;10.900;2023-03-04T01:00:06;10.37;;;6.90;;
21432;SDS011;18592;49.708;10.900;2023-03-04T01:02:09;11.50;;;7.30;;
21432;SDS011;18592;49.708;10.900;2023-03-04T01:04:11;11.37;;;7.17;;
21432;SDS011;18592;49.708;10.900;2023-03-04T01:06:13;13.60;;;7.13;;
21432;SDS011;18592;49.708;10.900;2023-03-04T01:08:14;12.33;;;7.00;;
21432;SDS011;18592;49.708;10.900;2023-03-04T01:10:16;10.47;;;7.13;;
21432;SDS011;18592;49.708;10.900;2023-03-04T01:12:18;10.53;;;7.30;;
21432;SDS011;18592;49.708;10.900;2023-03-04T01:14:19;10.53;;;7.03;;
21432;SDS011;18592;49.708;10.900;2023-03-04T01:16:21;12.57;;;7.53;;
21432;SDS011;18592;49.708;10.900;2023-03-04T01:18:23;11.60;;;7.13;;
21432;SDS011;18592;49.708;10.900;2023-03-04T01:20:25;10.60;;;6.67;;
21432;SDS011;18592;49.708;10.900;2023-03-04T01:22:26;10.10;;;6.47;;
21432;SDS011;18592;49.708;10.900;2023-03-04T01:24:28;11.97;;;7.53;;
21432;SDS011;18592;49.708;10.900;2023-03-04T01:26:30;10.27;;;7.20;;
21432;SDS011;18592;49.708;10.900;2023-03-04T01:28:32;10.43;;;6.87;;
21432;SDS011;18592;49.708;10.900;2023-03-04T01:30:36;9.20;;;6.63;;
21432;SDS011;18592;49.708;10.900;2023-03-04T01:32:37;10.90;;;6.47;;
21432;SDS011;18592;49.708;10.900;2023-03-04T01:34:39;9.23;;;6.70;;
21432;SDS011;18592;49.708;10.900;2023-03-04T01:36:41;8.37;;;6.00;;
21432;SDS011;18592;49.708;10.900;2023-03-04T01:38:42;9.47;;;6.33;;
21432;SDS011;18592;49.708;10.900;2023-03-04T01:40:44;10.23;;;6.33;;
21432;SDS011;18592;49.708;10.900;2023-03-04T01:42:45;8.90;;;6.40;;
21432;SDS011;18592;49.708;10.900;2023-03-04T01:44:47;8.93;;;6.03;;
21432;SDS011;18592;49.708;10.900;2023-03-04T01:46:53;10.00;;;6.57;;
21432;SDS011;18592;49.708;10.900;2023-03-04T01:48:57;9.87;;;6.70;;
21432;SDS011;18592;49.708;10.900;2023-03-04T01:51:00;11.10;;;7.00;;
21432;SDS011;18592;49.708;10.900;2023-03-04T01:53:04;9.80;;;6.83;;
21432;SDS011;18592;49.708;10.900;2023-03-04T01:55:24;9.40;;;6.30;;
21432;SDS011;18592;49.708;10.900;2023-03-04T01:57:32;8.87;;;5.97;;
21432;SDS011;18592;49.708;10.900;2023-03-04T01:59:35;8.70;;;6.03;;
21432;SDS011;18592;49.708;10.900;2023-03-04T02:01:37;10.73;;;6.93;;
21432;SDS011;18592;49.708;10.900;2023-03-04T02:03:40;9.10;;;6.47;;
21432;SDS011;18592;49.708;10.900;2023-03-04T02:05:44;8.63;;;6.37;;
21432;SDS011;18592;49.708;10.900;2023-03-04T02:07:49;8.77;;;6.33;;
21432;SDS011;18592;49.708;10.900;2023-03-04T02:09:52;9.40;;;6.33;;
21432;SDS011;18592;49.708;10.900;2023-03-04T02:11:54;8.23;;;6.40;;
21432;SDS011;18592;49.708;10.900;2023-03-04T02:13:56;8.50;;;6.33;;
21432;SDS011;18592;49.708;10.900;2023-03-04T02:15:58;9.67;;;6.60;;
21432;SDS011;18592;49.708;10.900;2023-03-04T02:18:01;9.97;;;6.40;;
21432;SDS011;18592;49.708;10.900;2023-03-04T02:22:22;12.17;;;7.37;;
21432;SDS011;18592;49.708;10.900;2023-03-04T02:26:29;8.77;;;6.57;;
21432;SDS011;18592;49.708;10.900;2023-03-04T02:28:33;9.20;;;6.50;;
21432;SDS011;18592;49.708;10.900;2023-03-04T02:30:35;10.23;;;6.97;;
21432;SDS011;18592;49.708;10.900;2023-03-04T02:32:37;9.20;;;6.20;;
21432;SDS011;18592;49.708;10.900;2023-03-04T02:34:40;9.50;;;6.73;;
21432;SDS011;18592;49.708;10.900;2023-03-04T02:36:47;10.37;;;6.90;;
21432;SDS011;18592;49.708;10.900;2023-03-04T02:38:52;9.80;;;6.63;;
21432;SDS011;18592;49.708;10.900;2023-03-04T02:40:54;11.27;;;6.33;;
21432;SDS011;18592;49.708;10.900;2023-03-04T02:42:58;9.83;;;6.37;;
21432;SDS011;18592;49.708;10.900;2023-03-04T02:45:01;9.77;;;6.77;;
21432;SDS011;18592;49.708;10.900;2023-03-04T02:47:04;9.23;;;6.47;;
21432;SDS011;18592;49.708;10.900;2023-03-04T02:49:07;10.90;;;6.93;;
21432;SDS011;18592;49.708;10.900;2023-03-04T02:51:09;9.27;;;6.17;;
21432;SDS011;18592;49.708;10.900;2023-03-04T02:53:11;8.87;;;5.90;;
21432;SDS011;18592;49.708;10.900;2023-03-04T02:55:13;8.90;;;6.00;;
21432;SDS011;18592;49.708;10.900;2023-03-04T02:57:15;11.70;;;6.80;;
21432;SDS011;18592;49.708;10.900;2023-03-04T02:59:21;9.90;;;6.77;;
21432;SDS011;18592;49.708;10.900;2023-03-04T03:01:26;8.40;;;6.00;;
21432;SDS011;18592;49.708;10.900;2023-03-04T03:03:29;10.47;;;6.47;;
21432;SDS011;18592;49.708;10.900;2023-03-04T03:05:32;10.23;;;6.20;;
21432;SDS011;18592;49.708;10.900;2023-03-04T03:07:35;9.23;;;6.07;;
21432;SDS011;18592;49.708;10.900;2023-03-04T03:09:38;8.97;;;5.93;;
21432;SDS011;18592;49.708;10.900;2023-03-04T03:11:40;10.47;;;6.03;;
21432;SDS011;18592;49.708;10.900;2023-03-04T03:13:42;8.93;;;6.13;;
21432;SDS011;18592;49.708;10.900;2023-03-04T03:15:44;9.87;;;6.27;;
21432;SDS011;18592;49.708;10.900;2023-03-04T03:17:45;9.87;;;5.90;;
21432;SDS011;18592;49.708;10.900;2023-03-04T03:19:48;10.30;;;6.47;;
21432;SDS011;18592;49.708;10.900;2023-03-04T03:21:50;10.10;;;6.23;;
21432;SDS011;18592;49.708;10.900;2023-03-04T03:23:52;8.83;;;6.10;;
21432;SDS011;18592;49.708;10.900;2023-03-04T03:25:54;8.87;;;5.53;;
21432;SDS011;18592;49.708;10.900;2023-03-04T03:27:55;10.13;;;6.70;;
21432;SDS011;18592;49.708;10.900;2023-03-04T03:29:57;9.70;;;5.90;;
21432;SDS011;18592;49.708;10.900;2023-03-04T03:32:01;9.53;;;6.53;;
21432;SDS011;18592;49.708;10.900;2023-03-04T03:34:03;9.50;;;6.00;;
21432;SDS011;18592;49.708;10.900;2023-03-04T03:36:05;9.33;;;6.00;;
21432;SDS011;18592;49.708;10.900;2023-03-04T03:38:07;9.27;;;6.00;;
21432;SDS011;18592;49.708;10.900;2023-03-04T03:40:09;9.70;;;5.97;;
21432;SDS011;18592;49.708;10.900;2023-03-04T03:42:12;10.97;;;6.50;;
21432;SDS011;18592;49.708;10.900;2023-03-04T03:44:13;10.00;;;6.40;;
21432;SDS011;18592;49.708;10.900;2023-03-04T03:46:15;9.87;;;6.23;;
21432;SDS011;18592;49.708;10.900;2023-03-04T03:48:16;9.30;;;5.90;;
21432;SDS011;18592;49.708;10.900;2023-03-04T03:50:18;9.43;;;6.33;;
21432;SDS011;18592;49.708;10.900;2023-03-04T03:52:20;9.80;;;5.90;;
21432;SDS011;18592;49.708;10.900;2023-03-04T03:54:21;9.97;;;6.23;;
21432;SDS011;18592;49.708;10.900;2023-03-04T03:56:23;10.67;;;6.50;;
21432;SDS011;18592;49.708;10.900;2023-03-04T03:58:24;10.43;;;6.23;;
21432;SDS011;18592;49.708;10.900;2023-03-04T04:00:27;11.10;;;6.70;;
21432;SDS011;18592;49.708;10.900;2023-03-04T04:02:29;10.47;;;6.70;;
21432;SDS011;18592;49.708;10.900;2023-03-04T04:04:30;9.60;;;5.83;;
21432;SDS011;18592;49.708;10.900;2023-03-04T04:06:32;9.50;;;6.67;;
21432;SDS011;18592;49.708;10.900;2023-03-04T04:08:34;9.70;;;6.10;;
21432;SDS011;18592;49.708;10.900;2023-03-04T04:10:35;10.47;;;6.60;;
21432;SDS011;18592;49.708;10.900;2023-03-04T04:12:37;9.50;;;6.13;;
21432;SDS011;18592;49.708;10.900;2023-03-04T04:14:39;10.50;;;6.37;;
21432;SDS011;18592;49.708;10.900;2023-03-04T04:16:41;10.33;;;6.03;;
21432;SDS011;18592;49.708;10.900;2023-03-04T04:18:43;10.53;;;6.40;;
21432;SDS011;18592;49.708;10.900;2023-03-04T04:20:45;11.77;;;6.87;;
21432;SDS011;18592;49.708;10.900;2023-03-04T04:22:47;10.20;;;6.40;;
21432;SDS011;18592;49.708;10.900;2023-03-04T04:24:48;11.13;;;6.90;;
21432;SDS011;18592;49.708;10.900;2023-03-04T04:26:50;9.57;;;6.33;;
21432;SDS011;18592;49.708;10.900;2023-03-04T04:28:51;9.53;;;6.23;;
21432;SDS011;18592;49.708;10.900;2023-03-04T04:30:53;9.57;;;6.33;;
21432;SDS011;18592;49.708;10.900;2023-03-04T04:32:55;9.93;;;6.10;;
21432;SDS011;18592;49.708;10.900;2023-03-04T04:34:56;8.80;;;5.90;;
21432;SDS011;18592;49.708;10.900;2023-03-04T04:36:58;9.30;;;6.30;;
21432;SDS011;18592;49.708;10.900;2023-03-04T04:38:59;10.10;;;6.27;;
21432;SDS011;18592;49.708;10.900;2023-03-04T04:41:01;7.90;;;5.30;;
21432;SDS011;18592;49.708;10.900;2023-03-04T04:43:03;8.40;;;5.73;;
21432;SDS011;18592;49.708;10.900;2023-03-04T04:45:05;9.87;;;5.87;;
21432;SDS011;18592;49.708;10.900;2023-03-04T04:47:08;9.93;;;5.57;;
21432;SDS011;18592;49.708;10.900;2023-03-04T04:49:10;7.73;;;4.97;;
21432;SDS011;18592;49.708;10.900;2023-03-04T04:51:11;11.33;;;6.53;;
21432;SDS011;18592;49.708;10.900;2023-03-04T04:53:13;8.73;;;5.37;;
21432;SDS011;18592;49.708;10.900;2023-03-04T04:55:15;10.57;;;6.07;;
21432;SDS011;18592;49.708;10.900;2023-03-04T04:57:17;8.93;;;6.03;;
21432;SDS011;18592;49.708;10.900;2023-03-04T04:59:18;9.80;;;5.93;;
21432;SDS011;18592;49.708;10.900;2023-03-04T05:01:20;8.90;;;6.07;;
21432;SDS011;18592;49.708;10.900;2023-03-04T05:03:22;10.23;;;6.27;;
21432;SDS011;18592;49.708;10.900;2023-03-04T05:05:24;8.33;;;5.63;;
21432;SDS011;18592;49.708;10.900;2023-03-04T05:07:25;9.47;;;6.30;;
21432;SDS011;18592;49.708;10.900;2023-03-04T05:09:27;9.43;;;5.40;;
21432;SDS011;18592;49.708;10.900;2023-03-04T05:11:28;9.10;;;6.00;;
21432;SDS011;18592;49.708;10.900;2023-03-04T05:13:30;8.70;;;5.47;;
21432;SDS011;18592;49.708;10.900;2023-03-04T05:15:32;8.77;;;5.87;;
21432;SDS011;18592;49.708;10.900;2023-03-04T05:17:34;9.67;;;6.17;;
21432;SDS011;18592;49.708;10.900;2023-03-04T05:19:35;8.63;;;5.90;;
21432;SDS011;18592;49.708;10.900;2023-03-04T05:21:37;8.17;;;5.37;;
21432;SDS011;18592;49.708;10.900;2023-03-04T05:23:39;9.63;;;6.10;;
21432;SDS011;18592;49.708;10.900;2023-03-04T05:25:42;10.10;;;6.40;;
21432;SDS011;18592;49.708;10.900;2023-03-04T05:27:43;10.87;;;6.87;;
21432;SDS011;18592;49.708;10.900;2023-03-04T05:29:45;8.80;;;6.10;;
21432;SDS011;18592;49.708;10.900;2023-03-04T05:31:47;9.27;;;5.80;;
21432;SDS011;18592;49.708;10.900;2023-03-04T05:33:48;8.87;;;5.47;;
21432;SDS011;18592;49.708;10.900;2023-03-04T05:35:50;11.07;;;6.87;;
21432;SDS011;18592;49.708;10.900;2023-03-04T05:37:52;9.87;;;6.27;;
21432;SDS011;18592;49.708;10.900;2023-03-04T05:39:53;10.33;;;6.43;;
21432;SDS011;18592;49.708;10.900;2023-03-04T05:41:55;10.70;;;6.47;;
21432;SDS011;18592;49.708;10.900;2023-03-04T05:43:56;10.93;;;7.00;;
21432;SDS011;18592;49.708;10.900;2023-03-04T05:45:58;11.53;;;6.70;;
21432;SDS011;18592;49.708;10.900;2023-03-04T05:48:00;11.50;;;7.30;;
21432;SDS011;18592;49.708;10.900;2023-03-04T05:50:03;9.90;;;6.63;;
21432;SDS011;18592;49.708;10.900;2023-03-04T05:52:05;9.63;;;5.93;;
21432;SDS011;18592;49.708;10.900;2023-03-04T05:54:06;10.47;;;6.83;;
21432;SDS011;18592;49.708;10.900;2023-03-04T05:56:08;8.73;;;5.67;;
21432;SDS011;18592;49.708;10.900;2023-03-04T05:58:12;10.20;;;6.70;;
21432;SDS011;18592;49.708;10.900;2023-03-04T06:00:14;10.13;;;6.70;;
21432;SDS011;18592;49.708;10.900;2023-03-04T06:02:17;10.40;;;6.27;;
21432;SDS011;18592;49.708;10.900;2023-03-04T06:04:18;10.23;;;6.53;;
21432;SDS011;18592;49.708;10.900;2023-03-04T06:06:20;9.70;;;6.93;;
21432;SDS011;18592;49.708;10.900;2023-03-04T06:08:22;8.90;;;6.00;;
21432;SDS011;18592;49.708;10.900;2023-03-04T06:10:24;10.00;;;6.63;;
21432;SDS011;18592;49.708;10.900;2023-03-04T06:12:26;9.67;;;6.30;;
21432;SDS011;18592;49.708;10.900;2023-03-04T06:14:29;9.33;;;6.30;;
21432;SDS011;18592;49.708;10.900;2023-03-04T06:16:30;11.30;;;6.50;;
21432;SDS011;18592;49.708;10.900;2023-03-04T06:18:32;9.77;;;6.10;;
21432;SDS011;18592;49.708;10.900;2023-03-04T06:20:34;9.70;;;6.50;;
21432;SDS011;18592;49.708;10.900;2023-03-04T06:22:35;10.47;;;6.43;;
21432;SDS011;18592;49.708;10.900;2023-03-04T06:24:37;9.90;;;6.40;;
21432;SDS011;18592;49.708;10.900;2023-03-04T06:26:39;10.63;;;6.47;;
21432;SDS011;18592;49.708;10.900;2023-03-04T06:28:41;9.43;;;5.97;;
21432;SDS011;18592;49.708;10.900;2023-03-04T06:30:43;12.93;;;7.30;;
21432;SDS011;18592;49.708;10.900;2023-03-04T06:32:45;15.43;;;8.03;;
21432;SDS011;18592;49.708;10.900;2023-03-04T06:34:48;14.27;;;8.50;;
21432;SDS011;18592;49.708;10.900;2023-03-04T06:36:49;11.73;;;7.63;;
21432;SDS011;18592;49.708;10.900;2023-03-04T06:38:51;15.70;;;8.13;;
21432;SDS011;18592;49.708;10.900;2023-03-04T06:40:53;11.00;;;6.90;;
21432;SDS011;18592;49.708;10.900;2023-03-04T06:42:57;12.37;;;8.20;;
21432;SDS011;18592;49.708;10.900;2023-03-04T06:44:59;12.30;;;7.47;;
21432;SDS011;18592;49.708;10.900;2023-03-04T06:47:01;10.37;;;6.83;;
21432;SDS011;18592;49.708;10.900;2023-03-04T06:49:02;12.00;;;7.13;;
21432;SDS011;18592;49.708;10.900;2023-03-04T06:51:05;12.33;;;7.17;;
21432;SDS011;18592;49.708;10.900;2023-03-04T06:53:10;11.50;;;7.60;;
21432;SDS011;18592;49.708;10.900;2023-03-04T06:55:11;11.53;;;7.23;;
21432;SDS011;18592;49.708;10.900;2023-03-04T06:57:14;10.23;;;6.37;;
21432;SDS011;18592;49.708;10.900;2023-03-04T06:59:16;10.80;;;6.90;;
21432;SDS011;18592;49.708;10.900;2023-03-04T07:01:24;12.43;;;7.27;;
21432;SDS011;18592;49.708;10.900;2023-03-04T07:03:27;11.03;;;6.77;;
21432;SDS011;18592;49.708;10.900;2023-03-04T07:05:29;10.57;;;6.83;;
21432;SDS011;18592;49.708;10.900;2023-03-04T07:07:30;11.67;;;7.53;;
21432;SDS011;18592;49.708;10.900;2023-03-04T07:09:32;12.20;;;7.47;;
21432;SDS011;18592;49.708;10.900;2023-03-04T07:11:33;12.57;;;7.33;;
21432;SDS011;18592;49.708;10.900;2023-03-04T07:13:35;10.83;;;7.30;;
21432;SDS011;18592;49.708;10.900;2023-03-04T07:15:38;11.60;;;7.33;;
21432;SDS011;18592;49.708;10.900;2023-03-04T07:17:40;11.17;;;7.37;;
21432;SDS011;18592;49.708;10.900;2023-03-04T07:19:41;13.83;;;7.73;;
21432;SDS011;18592;49.708;10.900;2023-03-04T07:21:43;12.90;;;7.70;;
21432;SDS011;18592;49.708;10.900;2023-03-04T07:23:45;10.57;;;7.60;;
21432;SDS011;18592;49.708;10.900;2023-03-04T07:25:47;12.13;;;7.13;;
21432;SDS011;18592;49.708;10.900;2023-03-04T07:27:50;13.80;;;8.33;;
21432;SDS011;18592;49.708;10.900;2023-03-04T07:29:52;10.67;;;7.30;;
21432;SDS011;18592;49.708;10.900;2023-03-04T07:31:53;11.63;;;7.97;;
21432;SDS011;18592;49.708;10.900;2023-03-04T07:33:57;11.73;;;7.37;;
21432;SDS011;18592;49.708;10.900;2023-03-04T07:36:10;12.57;;;8.07;;
21432;SDS011;18592;49.708;10.900;2023-03-04T07:38:12;11.97;;;7.93;;
21432;SDS011;18592;49.708;10.900;2023-03-04T07:40:13;11.83;;;7.77;;
21432;SDS011;18592;49.708;10.900;2023-03-04T07:42:15;11.93;;;7.47;;
21432;SDS011;18592;49.708;10.900;2023-03-04T07:44:25;12.97;;;8.13;;
21432;SDS011;18592;49.708;10.900;2023-03-04T07:46:26;11.50;;;7.47;;
21432;SDS011;18592;49.708;10.900;2023-03-04T07:48:28;14.23;;;8.67;;
21432;SDS011;18592;49.708;10.900;2023-03-04T07:50:29;14.23;;;8.87;;
21432;SDS011;18592;49.708;10.900;2023-03-04T07:52:31;12.13;;;7.83;;
21432;SDS011;18592;49.708;10.900;2023-03-04T07:54:33;12.47;;;7.60;;
21432;SDS011;18592;49.708;10.900;2023-03-04T07:56:34;11.43;;;7.80;;
21432;SDS011;18592;49.708;10.900;2023-03-04T07:58:36;12.23;;;8.10;;
21432;SDS011;18592;49.708;10.900;2023-03-04T08:00:38;14.00;;;8.33;;
21432;SDS011;18592;49.708;10.900;2023-03-04T08:02:41;11.10;;;7.40;;
21432;SDS011;18592;49.708;10.900;2023-03-04T08:04:43;11.40;;;7.67;;
21432;SDS011;18592;49.708;10.900;2023-03-04T08:06:45;12.07;;;7.63;;
21432;SDS011;18592;49.708;10.900;2023-03-04T08:08:47;14.17;;;8.53;;
21432;SDS011;18592;49.708;10.900;2023-03-04T08:10:49;11.23;;;7.27;;
21432;SDS011;18592;49.708;10.900;2023-03-04T08:12:51;14.73;;;8.60;;
21432;SDS011;18592;49.708;10.900;2023-03-04T08:14:52;12.67;;;8.00;;
21432;SDS011;18592;49.708;10.900;2023-03-04T08:16:54;12.03;;;7.67;;
21432;SDS011;18592;49.708;10.900;2023-03-04T08:18:57;12.13;;;6.90;;
21432;SDS011;18592;49.708;10.900;2023-03-04T08:21:00;10.90;;;7.30;;
21432;SDS011;18592;49.708;10.900;2023-03-04T08:23:02;12.13;;;7.90;;
21432;SDS011;18592;49.708;10.900;2023-03-04T08:25:04;13.33;;;7.73;;
21432;SDS011;18592;49.708;10.900;2023-03-04T08:27:05;12.60;;;7.63;;
21432;SDS011;18592;49.708;10.900;2023-03-04T08:29:08;10.82;;;7.07;;
21432;SDS011;18592;49.708;10.900;2023-03-04T08:31:13;12.80;;;7.50;;
21432;SDS011;18592;49.708;10.900;2023-03-04T08:33:16;11.00;;;7.00;;
21432;SDS011;18592;49.708;10.900;2023-03-04T08:35:17;10.27;;;7.37;;
21432;SDS011;18592;49.708;10.900;2023-03-04T08:37:19;11.70;;;6.87;;
21432;SDS011;18592;49.708;10.900;2023-03-04T08:39:20;10.03;;;7.50;;
21432;SDS011;18592;49.708;10.900;2023-03-04T08:41:22;9.87;;;6.67;;
21432;SDS011;18592;49.708;10.900;2023-03-04T08:43:26;8.88;;;6.28;;
21432;SDS011;18592;49.708;10.900;2023-03-04T08:45:28;10.70;;;6.63;;
21432;SDS011;18592;49.708;10.900;2023-03-04T08:47:30;11.83;;;7.13;;
21432;SDS011;18592;49.708;10.900;2023-03-04T08:49:31;12.67;;;7.70;;
21432;SDS011;18592;49.708;10.900;2023-03-04T08:51:33;10.97;;;6.53;;
21432;SDS011;18592;49.708;10.900;2023-03-04T08:53:36;11.97;;;7.50;;
21432;SDS011;18592;49.708;10.900;2023-03-04T08:55:38;10.70;;;6.80;;
21432;SDS011;18592;49.708;10.900;2023-03-04T08:57:40;12.57;;;7.33;;
21432;SDS011;18592;49.708;10.900;2023-03-04T08:59:42;10.07;;;6.53;;
21432;SDS011;18592;49.708;10.900;2023-03-04T09:01:44;9.40;;;6.27;;
21432;SDS011;18592;49.708;10.900;2023-03-04T09:03:46;12.17;;;7.23;;
21432;SDS011;18592;49.708;10.900;2023-03-04T09:05:47;10.10;;;6.32;;
21432;SDS011;18592;49.708;10.900;2023-03-04T09:07:49;10.70;;;7.13;;
21432;SDS011;18592;49.708;10.900;2023-03-04T09:09:51;11.63;;;6.83;;
21432;SDS011;18592;49.708;10.900;2023-03-04T09:11:53;10.00;;;7.00;;
21432;SDS011;18592;49.708;10.900;2023-03-04T09:13:55;12.23;;;7.33;;
21432;SDS011;18592;49.708;10.900;2023-03-04T09:15:57;10.13;;;6.83;;
21432;SDS011;18592;49.708;10.900;2023-03-04T09:18:00;10.40;;;7.00;;
21432;SDS011;18592;49.708;10.900;2023-03-04T09:20:03;8.93;;;6.87;;
21432;SDS011;18592;49.708;10.900;2023-03-04T09:22:06;10.60;;;7.43;;
21432;SDS011;18592;49.708;10.900;2023-03-04T09:24:07;9.90;;;7.27;;
21432;SDS011;18592;49.708;10.900;2023-03-04T09:26:17;11.53;;;7.70;;
21432;SDS011;18592;49.708;10.900;2023-03-04T09:28:22;12.73;;;7.20;;
21432;SDS011;18592;49.708;10.900;2023-03-04T09:30:24;10.48;;;7.30;;
21432;SDS011;18592;49.708;10.900;2023-03-04T09:32:29;11.07;;;7.33;;
21432;SDS011;18592;49.708;10.900;2023-03-04T09:34:31;12.07;;;7.23;;
21432;SDS011;18592;49.708;10.900;2023-03-04T09:36:32;10.57;;;7.00;;
21432;SDS011;18592;49.708;10.900;2023-03-04T09:38:34;10.23;;;7.03;;
21432;SDS011;18592;49.708;10.900;2023-03-04T09:40:43;10.53;;;6.93;;
21432;SDS011;18592;49.708;10.900;2023-03-04T09:42:50;12.03;;;7.43;;
21432;SDS011;18592;49.708;10.900;2023-03-04T09:44:56;11.97;;;7.70;;
21432;SDS011;18592;49.708;10.900;2023-03-04T09:47:03;11.80;;;7.82;;
21432;SDS011;18592;49.708;10.900;2023-03-04T09:49:09;11.68;;;6.95;;
21432;SDS011;18592;49.708;10.900;2023-03-04T09:53:43;10.93;;;6.80;;
21432;SDS011;18592;49.708;10.900;2023-03-04T09:55:48;10.30;;;6.88;;
21432;SDS011;18592;49.708;10.900;2023-03-04T09:57:52;9.88;;;7.13;;
21432;SDS011;18592;49.708;10.900;2023-03-04T10:00:04;10.00;;;7.00;;
21432;SDS011;18592;49.708;10.900;2023-03-04T10:02:19;10.20;;;6.90;;
21432;SDS011;18592;49.708;10.900;2023-03-04T10:04:43;10.65;;;6.82;;
21432;SDS011;18592;49.708;10.900;2023-03-04T10:06:50;9.82;;;5.85;;
21432;SDS011;18592;49.708;10.900;2023-03-04T10:08:56;9.20;;;6.78;;
21432;SDS011;18592;49.708;10.900;2023-03-04T10:11:02;10.07;;;7.18;;
21432;SDS011;18592;49.708;10.900;2023-03-04T10:13:15;9.35;;;6.28;;
21432;SDS011;18592;49.708;10.900;2023-03-04T10:15:30;8.90;;;5.95;;
21432;SDS011;18592;49.708;10.900;2023-03-04T10:17:37;10.27;;;6.47;;
21432;SDS011;18592;49.708;10.900;2023-03-04T10:20:00;10.88;;;6.93;;
21432;SDS011;18592;49.708;10.900;2023-03-04T10:24:25;12.27;;;7.20;;
21432;SDS011;18592;49.708;10.900;2023-03-04T10:26:29;10.35;;;6.60;;
21432;SDS011;18592;49.708;10.900;2023-03-04T10:28:33;9.07;;;6.05;;
21432;SDS011;18592;49.708;10.900;2023-03-04T10:30:39;8.20;;;5.85;;
21432;SDS011;18592;49.708;10.900;2023-03-04T10:32:48;9.15;;;6.32;;
21432;SDS011;18592;49.708;10.900;2023-03-04T10:34:50;10.63;;;6.10;;
21432;SDS011;18592;49.708;10.900;2023-03-04T10:36:53;9.98;;;6.50;;
21432;SDS011;18592;49.708;10.900;2023-03-04T10:38:56;9.00;;;6.35;;
21432;SDS011;18592;49.708;10.900;2023-03-04T10:41:01;8.07;;;5.57;;
21432;SDS011;18592;49.708;10.900;2023-03-04T10:43:14;9.57;;;6.20;;
21432;SDS011;18592;49.708;10.900;2023-03-04T10:45:24;8.98;;;6.30;;
21432;SDS011;18592;49.708;10.900;2023-03-04T10:47:29;7.95;;;5.55;;
21432;SDS011;18592;49.708;10.900;2023-03-04T10:49:33;12.35;;;6.93;;
21432;SDS011;18592;49.708;10.900;2023-03-04T10:51:40;9.07;;;6.20;;
21432;SDS011;18592;49.708;10.900;2023-03-04T10:53:44;8.32;;;6.05;;
21432;SDS011;18592;49.708;10.900;2023-03-04T10:55:48;10.57;;;6.43;;
21432;SDS011;18592;49.708;10.900;2023-03-04T10:58:03;9.90;;;6.07;;
21432;SDS011;18592;49.708;10.900;2023-03-04T11:02:22;8.32;;;5.93;;
21432;SDS011;18592;49.708;10.900;2023-03-04T11:04:31;8.10;;;5.72;;
21432;SDS011;18592;49.708;10.900;2023-03-04T11:06:38;9.05;;;6.28;;
21432;SDS011;18592;49.708;10.900;2023-03-04T11:08:41;10.43;;;5.75;;
21432;SDS011;18592;49.708;10.900;2023-03-04T11:10:44;10.30;;;5.93;;
21432;SDS011;18592;49.708;10.900;2023-03-04T11:12:50;7.88;;;5.30;;
21432;SDS011;18592;49.708;10.900;2023-03-04T11:15:27;8.05;;;5.25;;
21432;SDS011;18592;49.708;10.900;2023-03-04T11:19:49;9.40;;;5.85;;
21432;SDS011;18592;49.708;10.900;2023-03-04T11:21:54;7.72;;;5.72;;
21432;SDS011;18592;49.708;10.900;2023-03-04T11:23:59;8.73;;;6.00;;
21432;SDS011;18592;49.708;10.900;2023-03-04T11:26:45;9.48;;;6.15;;
21432;SDS011;18592;49.708;10.900;2023-03-04T11:28:53;10.18;;;6.70;;
21432;SDS011;18592;49.708;10.900;2023-03-04T11:31:05;8.80;;;6.45;;
21432;SDS011;18592;49.708;10.900;2023-03-04T11:33:27;10.05;;;6.47;;
21432;SDS011;18592;49.708;10.900;2023-03-04T11:35:47;8.55;;;5.57;;
21432;SDS011;18592;49.708;10.900;2023-03-04T11:38:20;9.52;;;6.05;;
21432;SDS011;18592;49.708;10.900;2023-03-04T11:40:38;9.23;;;6.25;;
21432;SDS011;18592;49.708;10.900;2023-03-04T11:42:44;8.70;;;5.88;;
21432;SDS011;18592;49.708;10.900;2023-03-04T11:44:53;9.15;;;6.25;;
21432;SDS011;18592;49.708;10.900;2023-03-04T11:47:12;10.48;;;6.55;;
21432;SDS011;18592;49.708;10.900;2023-03-04T11:49:46;8.40;;;6.00;;
21432;SDS011;18592;49.708;10.900;2023-03-04T11:54:38;10.05;;;6.40;;
21432;SDS011;18592;49.708;10.900;2023-03-04T11:57:19;8.02;;;6.05;;
21432;SDS011;18592;49.708;10.900;2023-03-04T12:02:18;9.63;;;6.13;;
21432;SDS011;18592;49.708;10.900;2023-03-04T12:04:36;9.43;;;6.10;;
21432;SDS011;18592;49.708;10.900;2023-03-04T12:06:56;11.10;;;5.93;;
21432;SDS011;18592;49.708;10.900;2023-03-04T12:14:10;7.60;;;5.40;;
21432;SDS011;18592;49.708;10.900;2023-03-04T12:25:59;8.80;;;5.57;;
21432;SDS011;18592;49.708;10.900;2023-03-04T12:28:14;10.25;;;6.43;;
21432;SDS011;18592;49.708;10.900;2023-03-04T12:33:04;8.25;;;4.88;;
21432;SDS011;18592;49.708;10.900;2023-03-04T12:42:28;6.63;;;4.53;;
21432;SDS011;18592;49.708;10.900;2023-03-04T12:45:00;9.00;;;5.07;;
21432;SDS011;18592;49.708;10.900;2023-03-04T12:47:27;9.10;;;4.72;;
21432;SDS011;18592;49.708;10.900;2023-03-04T12:54:33;6.50;;;4.25;;
21432;SDS011;18592;49.708;10.900;2023-03-04T12:56:42;8.65;;;4.90;;
21432;SDS011;18592;49.708;10.900;2023-03-04T12:58:50;7.10;;;4.40;;